sensor_id;sensor_type;location;lat;lon;timestamp;P1;durP1;ratioP1;P2;durP2;ratioP2
6640;SDS011;3356;49.360;8.266;2022-10-17T00:01:52;11.50;;;6.83;;
6640;SDS011;3356;49.360;8.266;2022-10-17T00:03:53;10.63;;;6.60;;
6640;SDS011;3356;49.360;8.266;2022-10-17T00:05:54;9.63;;;6.73;;
6640;SDS011;3356;49.360;8.266;2022-10-17T00:07:55;7.83;;;6.07;;
6640;SDS011;3356;49.360;8.266;2022-10-17T00:09:56;9.27;;;6.20;;
6640;SDS011;3356;49.360;8.266;2022-10-17T00:11:57;7.97;;;7.13;;
6640;SDS011;3356;49.360;8.266;2022-10-17T00:13:58;8.00;;;6.77;;
6640;SDS011;3356;49.360;8.266;2022-10-17T00:15:59;11.47;;;6.97;;
6640;SDS011;3356;49.360;8.266;2022-10-17T00:18:01;7.83;;;6.67;;
6640;SDS011;3356;49.360;8.266;2022-10-17T00:20:03;16.07;;;7.37;;
6640;SDS011;3356;49.360;8.266;2022-10-17T00:22:05;12.80;;;7.43;;
6640;SDS011;3356;49.360;8.266;2022-10-17T00:24:06;11.57;;;5.70;;
6640;SDS011;3356;49.360;8.266;2022-10-17T00:26:07;10.73;;;6.43;;
6640;SDS011;3356;49.360;8.266;2022-10-17T00:28:10;11.20;;;7.20;;
6640;SDS011;3356;49.360;8.266;2022-10-17T00:30:12;8.53;;;7.47;;
6640;SDS011;3356;49.360;8.266;2022-10-17T00:32:15;10.73;;;7.33;;
6640;SDS011;3356;49.360;8.266;2022-10-17T00:34:16;12.17;;;6.27;;
6640;SDS011;3356;49.360;8.266;2022-10-17T00:36:19;7.13;;;5.80;;
6640;SDS011;3356;49.360;8.266;2022-10-17T00:38:21;9.43;;;5.70;;
6640;SDS011;3356;49.360;8.266;2022-10-17T00:40:23;7.47;;;5.70;;
6640;SDS011;3356;49.360;8.266;2022-10-17T00:42:24;8.67;;;5.67;;
6640;SDS011;3356;49.360;8.266;2022-10-17T00:46:36;9.53;;;5.70;;
6640;SDS011;3356;49.360;8.266;2022-10-17T00:48:38;12.27;;;7.37;;
6640;SDS011;3356;49.360;8.266;2022-10-17T00:50:40;8.10;;;6.63;;
6640;SDS011;3356;49.360;8.266;2022-10-17T00:52:43;7.83;;;6.27;;
6640;SDS011;3356;49.360;8.266;2022-10-17T00:54:47;9.77;;;6.43;;
6640;SDS011;3356;49.360;8.266;2022-10-17T00:56:51;10.97;;;6.47;;
6640;SDS011;3356;49.360;8.266;2022-10-17T00:58:52;13.53;;;7.23;;
6640;SDS011;3356;49.360;8.266;2022-10-17T01:00:54;13.40;;;6.90;;
6640;SDS011;3356;49.360;8.266;2022-10-17T01:02:55;9.87;;;7.47;;
6640;SDS011;3356;49.360;8.266;2022-10-17T01:04:57;11.10;;;7.97;;
6640;SDS011;3356;49.360;8.266;2022-10-17T01:06:59;9.23;;;6.80;;
6640;SDS011;3356;49.360;8.266;2022-10-17T01:09:00;10.70;;;7.27;;
6640;SDS011;3356;49.360;8.266;2022-10-17T01:13:22;11.57;;;7.20;;
6640;SDS011;3356;49.360;8.266;2022-10-17T01:22:35;8.80;;;6.37;;
6640;SDS011;3356;49.360;8.266;2022-10-17T01:25:12;11.00;;;6.33;;
6640;SDS011;3356;49.360;8.266;2022-10-17T01:32:07;10.07;;;5.90;;
6640;SDS011;3356;49.360;8.266;2022-10-17T01:34:22;8.93;;;5.77;;
6640;SDS011;3356;49.360;8.266;2022-10-17T01:36:37;10.93;;;5.63;;
6640;SDS011;3356;49.360;8.266;2022-10-17T01:41:35;7.27;;;5.53;;
6640;SDS011;3356;49.360;8.266;2022-10-17T01:43:48;6.03;;;5.43;;
6640;SDS011;3356;49.360;8.266;2022-10-17T01:46:00;5.97;;;5.37;;
6640;SDS011;3356;49.360;8.266;2022-10-17T01:48:20;8.03;;;5.73;;
6640;SDS011;3356;49.360;8.266;2022-10-17T01:50:28;7.30;;;6.10;;
6640;SDS011;3356;49.360;8.266;2022-10-17T01:52:50;12.67;;;6.90;;
6640;SDS011;3356;49.360;8.266;2022-10-17T01:55:02;9.20;;;6.27;;
6640;SDS011;3356;49.360;8.266;2022-10-17T01:57:14;8.33;;;6.30;;
6640;SDS011;3356;49.360;8.266;2022-10-17T01:59:40;7.93;;;5.13;;
6640;SDS011;3356;49.360;8.266;2022-10-17T02:01:45;6.97;;;5.27;;
6640;SDS011;3356;49.360;8.266;2022-10-17T02:03:47;9.83;;;5.20;;
6640;SDS011;3356;49.360;8.266;2022-10-17T02:05:50;9.07;;;5.30;;
6640;SDS011;3356;49.360;8.266;2022-10-17T02:07:51;9.23;;;5.70;;
6640;SDS011;3356;49.360;8.266;2022-10-17T02:09:53;8.17;;;5.63;;
6640;SDS011;3356;49.360;8.266;2022-10-17T02:21:32;12.13;;;6.43;;
6640;SDS011;3356;49.360;8.266;2022-10-17T02:23:53;11.83;;;5.90;;
6640;SDS011;3356;49.360;8.266;2022-10-17T02:26:10;10.37;;;5.87;;
6640;SDS011;3356;49.360;8.266;2022-10-17T02:28:43;8.47;;;5.77;;
6640;SDS011;3356;49.360;8.266;2022-10-17T02:35:40;7.80;;;5.70;;
6640;SDS011;3356;49.360;8.266;2022-10-17T02:37:47;11.37;;;6.23;;
6640;SDS011;3356;49.360;8.266;2022-10-17T02:39:50;10.03;;;6.17;;
6640;SDS011;3356;49.360;8.266;2022-10-17T02:41:54;9.53;;;5.90;;
6640;SDS011;3356;49.360;8.266;2022-10-17T02:43:58;11.87;;;7.07;;
6640;SDS011;3356;49.360;8.266;2022-10-17T02:46:02;10.53;;;6.83;;
6640;SDS011;3356;49.360;8.266;2022-10-17T02:48:07;9.67;;;6.97;;
6640;SDS011;3356;49.360;8.266;2022-10-17T02:50:14;9.43;;;6.80;;
6640;SDS011;3356;49.360;8.266;2022-10-17T02:52:25;14.00;;;7.43;;
6640;SDS011;3356;49.360;8.266;2022-10-17T02:54:44;11.90;;;6.53;;
6640;SDS011;3356;49.360;8.266;2022-10-17T02:57:01;11.50;;;6.90;;
6640;SDS011;3356;49.360;8.266;2022-10-17T02:59:14;9.50;;;6.87;;
6640;SDS011;3356;49.360;8.266;2022-10-17T03:01:20;13.40;;;6.93;;
6640;SDS011;3356;49.360;8.266;2022-10-17T03:03:23;11.07;;;6.43;;
6640;SDS011;3356;49.360;8.266;2022-10-17T03:05:27;9.63;;;6.70;;
6640;SDS011;3356;49.360;8.266;2022-10-17T03:07:29;9.07;;;6.47;;
6640;SDS011;3356;49.360;8.266;2022-10-17T03:09:30;11.50;;;6.30;;
6640;SDS011;3356;49.360;8.266;2022-10-17T03:11:31;15.30;;;6.40;;
6640;SDS011;3356;49.360;8.266;2022-10-17T03:13:33;9.83;;;6.20;;
6640;SDS011;3356;49.360;8.266;2022-10-17T03:15:34;7.87;;;5.63;;
6640;SDS011;3356;49.360;8.266;2022-10-17T03:17:35;6.87;;;5.77;;
6640;SDS011;3356;49.360;8.266;2022-10-17T03:19:37;9.37;;;5.40;;
6640;SDS011;3356;49.360;8.266;2022-10-17T03:21:38;6.97;;;5.30;;
6640;SDS011;3356;49.360;8.266;2022-10-17T03:23:40;10.57;;;5.90;;
6640;SDS011;3356;49.360;8.266;2022-10-17T03:25:41;11.93;;;5.30;;
6640;SDS011;3356;49.360;8.266;2022-10-17T03:27:42;8.53;;;5.30;;
6640;SDS011;3356;49.360;8.266;2022-10-17T03:29:43;6.57;;;5.60;;
6640;SDS011;3356;49.360;8.266;2022-10-17T03:31:46;10.83;;;6.03;;
6640;SDS011;3356;49.360;8.266;2022-10-17T03:33:48;7.43;;;5.80;;
6640;SDS011;3356;49.360;8.266;2022-10-17T03:35:49;8.17;;;5.63;;
6640;SDS011;3356;49.360;8.266;2022-10-17T03:37:51;9.50;;;5.13;;
6640;SDS011;3356;49.360;8.266;2022-10-17T03:39:56;6.13;;;5.47;;
6640;SDS011;3356;49.360;8.266;2022-10-17T03:41:57;10.03;;;6.27;;
6640;SDS011;3356;49.360;8.266;2022-10-17T03:43:58;10.23;;;5.60;;
6640;SDS011;3356;49.360;8.266;2022-10-17T03:46:00;7.60;;;5.30;;
6640;SDS011;3356;49.360;8.266;2022-10-17T03:48:03;12.83;;;5.87;;
6640;SDS011;3356;49.360;8.266;2022-10-17T03:50:04;9.57;;;5.73;;
6640;SDS011;3356;49.360;8.266;2022-10-17T03:52:10;6.30;;;5.10;;
6640;SDS011;3356;49.360;8.266;2022-10-17T03:54:12;11.47;;;6.40;;
6640;SDS011;3356;49.360;8.266;2022-10-17T03:58:17;9.13;;;5.57;;
6640;SDS011;3356;49.360;8.266;2022-10-17T04:00:18;12.23;;;6.07;;
6640;SDS011;3356;49.360;8.266;2022-10-17T04:02:27;6.87;;;5.43;;
6640;SDS011;3356;49.360;8.266;2022-10-17T04:04:28;6.60;;;5.87;;
6640;SDS011;3356;49.360;8.266;2022-10-17T04:06:30;14.80;;;7.80;;
6640;SDS011;3356;49.360;8.266;2022-10-17T04:08:31;9.43;;;6.30;;
6640;SDS011;3356;49.360;8.266;2022-10-17T04:10:39;6.83;;;5.77;;
6640;SDS011;3356;49.360;8.266;2022-10-17T04:12:41;9.70;;;6.23;;
6640;SDS011;3356;49.360;8.266;2022-10-17T04:14:42;9.83;;;7.00;;
6640;SDS011;3356;49.360;8.266;2022-10-17T04:16:43;11.93;;;6.40;;
6640;SDS011;3356;49.360;8.266;2022-10-17T04:18:55;8.17;;;6.17;;
6640;SDS011;3356;49.360;8.266;2022-10-17T04:21:06;8.00;;;6.43;;
6640;SDS011;3356;49.360;8.266;2022-10-17T04:23:08;9.17;;;6.77;;
6640;SDS011;3356;49.360;8.266;2022-10-17T04:25:10;16.53;;;7.73;;
6640;SDS011;3356;49.360;8.266;2022-10-17T04:27:14;13.90;;;7.50;;
6640;SDS011;3356;49.360;8.266;2022-10-17T04:29:18;9.93;;;7.00;;
6640;SDS011;3356;49.360;8.266;2022-10-17T04:31:22;10.03;;;7.50;;
6640;SDS011;3356;49.360;8.266;2022-10-17T04:33:47;13.87;;;7.50;;
6640;SDS011;3356;49.360;8.266;2022-10-17T04:38:11;10.27;;;7.07;;
6640;SDS011;3356;49.360;8.266;2022-10-17T04:40:12;12.20;;;7.87;;
6640;SDS011;3356;49.360;8.266;2022-10-17T04:42:14;9.33;;;7.70;;
6640;SDS011;3356;49.360;8.266;2022-10-17T04:44:15;10.50;;;8.47;;
6640;SDS011;3356;49.360;8.266;2022-10-17T04:46:23;11.10;;;7.47;;
6640;SDS011;3356;49.360;8.266;2022-10-17T04:48:24;7.53;;;6.70;;
6640;SDS011;3356;49.360;8.266;2022-10-17T04:50:25;10.13;;;7.00;;
6640;SDS011;3356;49.360;8.266;2022-10-17T04:52:44;9.67;;;6.40;;
6640;SDS011;3356;49.360;8.266;2022-10-17T04:54:46;10.20;;;5.90;;
6640;SDS011;3356;49.360;8.266;2022-10-17T04:56:47;8.57;;;6.20;;
6640;SDS011;3356;49.360;8.266;2022-10-17T04:58:49;12.00;;;6.30;;
6640;SDS011;3356;49.360;8.266;2022-10-17T05:00:50;12.43;;;6.87;;
6640;SDS011;3356;49.360;8.266;2022-10-17T05:02:59;10.77;;;6.97;;
6640;SDS011;3356;49.360;8.266;2022-10-17T05:05:01;7.80;;;6.30;;
6640;SDS011;3356;49.360;8.266;2022-10-17T05:07:02;11.67;;;6.73;;
6640;SDS011;3356;49.360;8.266;2022-10-17T05:09:16;12.67;;;7.03;;
6640;SDS011;3356;49.360;8.266;2022-10-17T05:11:21;13.90;;;7.20;;
6640;SDS011;3356;49.360;8.266;2022-10-17T05:13:27;8.37;;;6.63;;
6640;SDS011;3356;49.360;8.266;2022-10-17T05:15:28;12.57;;;7.03;;
6640;SDS011;3356;49.360;8.266;2022-10-17T05:17:30;9.77;;;6.77;;
6640;SDS011;3356;49.360;8.266;2022-10-17T05:19:31;15.47;;;7.90;;
6640;SDS011;3356;49.360;8.266;2022-10-17T05:21:32;13.57;;;7.27;;
6640;SDS011;3356;49.360;8.266;2022-10-17T05:23:34;9.37;;;6.60;;
6640;SDS011;3356;49.360;8.266;2022-10-17T05:25:35;8.33;;;7.27;;
6640;SDS011;3356;49.360;8.266;2022-10-17T05:27:36;8.33;;;7.17;;
6640;SDS011;3356;49.360;8.266;2022-10-17T05:29:38;12.43;;;8.63;;
6640;SDS011;3356;49.360;8.266;2022-10-17T05:31:49;8.10;;;7.07;;
6640;SDS011;3356;49.360;8.266;2022-10-17T05:33:53;10.20;;;7.00;;
6640;SDS011;3356;49.360;8.266;2022-10-17T05:35:54;11.43;;;6.83;;
6640;SDS011;3356;49.360;8.266;2022-10-17T05:37:56;9.23;;;6.97;;
6640;SDS011;3356;49.360;8.266;2022-10-17T05:39:59;9.07;;;7.20;;
6640;SDS011;3356;49.360;8.266;2022-10-17T05:42:00;9.57;;;6.67;;
6640;SDS011;3356;49.360;8.266;2022-10-17T05:44:02;12.63;;;7.20;;
6640;SDS011;3356;49.360;8.266;2022-10-17T05:46:15;7.20;;;6.50;;
6640;SDS011;3356;49.360;8.266;2022-10-17T05:48:17;10.23;;;7.27;;
6640;SDS011;3356;49.360;8.266;2022-10-17T05:50:18;16.23;;;8.47;;
6640;SDS011;3356;49.360;8.266;2022-10-17T05:52:43;10.70;;;7.40;;
6640;SDS011;3356;49.360;8.266;2022-10-17T05:54:48;11.00;;;7.93;;
6640;SDS011;3356;49.360;8.266;2022-10-17T05:56:53;14.47;;;7.50;;
6640;SDS011;3356;49.360;8.266;2022-10-17T05:58:58;10.53;;;7.43;;
6640;SDS011;3356;49.360;8.266;2022-10-17T06:01:20;9.10;;;6.23;;
6640;SDS011;3356;49.360;8.266;2022-10-17T06:03:22;9.73;;;6.57;;
6640;SDS011;3356;49.360;8.266;2022-10-17T06:05:23;8.27;;;6.77;;
6640;SDS011;3356;49.360;8.266;2022-10-17T06:07:24;8.93;;;6.47;;
6640;SDS011;3356;49.360;8.266;2022-10-17T06:09:26;10.57;;;7.33;;
6640;SDS011;3356;49.360;8.266;2022-10-17T06:11:29;10.23;;;6.70;;
6640;SDS011;3356;49.360;8.266;2022-10-17T06:13:30;11.77;;;6.73;;
6640;SDS011;3356;49.360;8.266;2022-10-17T06:15:34;8.80;;;6.80;;
6640;SDS011;3356;49.360;8.266;2022-10-17T06:17:40;7.20;;;6.37;;
6640;SDS011;3356;49.360;8.266;2022-10-17T06:19:41;11.80;;;7.07;;
6640;SDS011;3356;49.360;8.266;2022-10-17T06:21:43;10.13;;;6.70;;
6640;SDS011;3356;49.360;8.266;2022-10-17T06:23:52;12.87;;;6.40;;
6640;SDS011;3356;49.360;8.266;2022-10-17T06:26:00;9.33;;;6.77;;
6640;SDS011;3356;49.360;8.266;2022-10-17T06:28:03;9.40;;;6.67;;
6640;SDS011;3356;49.360;8.266;2022-10-17T06:30:05;11.63;;;7.30;;
6640;SDS011;3356;49.360;8.266;2022-10-17T06:32:07;10.00;;;7.60;;
6640;SDS011;3356;49.360;8.266;2022-10-17T06:34:08;12.47;;;7.50;;
6640;SDS011;3356;49.360;8.266;2022-10-17T06:36:11;9.50;;;6.43;;
6640;SDS011;3356;49.360;8.266;2022-10-17T06:38:13;10.47;;;7.53;;
6640;SDS011;3356;49.360;8.266;2022-10-17T06:40:16;13.10;;;7.73;;
6640;SDS011;3356;49.360;8.266;2022-10-17T06:42:17;11.27;;;7.20;;
6640;SDS011;3356;49.360;8.266;2022-10-17T06:44:21;8.30;;;7.40;;
6640;SDS011;3356;49.360;8.266;2022-10-17T06:46:43;12.90;;;7.73;;
6640;SDS011;3356;49.360;8.266;2022-10-17T06:48:48;9.70;;;7.73;;
6640;SDS011;3356;49.360;8.266;2022-10-17T06:51:03;9.37;;;7.53;;
6640;SDS011;3356;49.360;8.266;2022-10-17T06:53:13;8.50;;;7.07;;
6640;SDS011;3356;49.360;8.266;2022-10-17T06:55:17;7.00;;;6.40;;
6640;SDS011;3356;49.360;8.266;2022-10-17T06:57:27;6.13;;;5.07;;
6640;SDS011;3356;49.360;8.266;2022-10-17T06:59:47;6.40;;;4.87;;
6640;SDS011;3356;49.360;8.266;2022-10-17T07:01:53;7.27;;;4.80;;
6640;SDS011;3356;49.360;8.266;2022-10-17T07:03:54;10.33;;;4.50;;
6640;SDS011;3356;49.360;8.266;2022-10-17T07:05:56;9.13;;;4.40;;
6640;SDS011;3356;49.360;8.266;2022-10-17T07:07:58;7.13;;;6.27;;
6640;SDS011;3356;49.360;8.266;2022-10-17T07:09:59;9.43;;;6.73;;
6640;SDS011;3356;49.360;8.266;2022-10-17T07:12:01;10.90;;;5.97;;
6640;SDS011;3356;49.360;8.266;2022-10-17T07:14:02;7.93;;;5.20;;
6640;SDS011;3356;49.360;8.266;2022-10-17T07:16:04;7.07;;;4.93;;
6640;SDS011;3356;49.360;8.266;2022-10-17T07:18:06;7.90;;;4.70;;
6640;SDS011;3356;49.360;8.266;2022-10-17T07:20:08;10.77;;;5.17;;
6640;SDS011;3356;49.360;8.266;2022-10-17T07:22:11;7.40;;;3.73;;
6640;SDS011;3356;49.360;8.266;2022-10-17T07:24:16;6.93;;;4.00;;
6640;SDS011;3356;49.360;8.266;2022-10-17T07:26:21;8.20;;;4.43;;
6640;SDS011;3356;49.360;8.266;2022-10-17T07:28:23;8.17;;;5.80;;
6640;SDS011;3356;49.360;8.266;2022-10-17T07:30:26;13.50;;;6.03;;
6640;SDS011;3356;49.360;8.266;2022-10-17T07:32:34;12.60;;;6.67;;
6640;SDS011;3356;49.360;8.266;2022-10-17T07:34:36;9.70;;;5.57;;
6640;SDS011;3356;49.360;8.266;2022-10-17T07:36:39;5.63;;;4.80;;
6640;SDS011;3356;49.360;8.266;2022-10-17T07:38:41;9.23;;;4.90;;
6640;SDS011;3356;49.360;8.266;2022-10-17T07:40:42;10.13;;;5.57;;
6640;SDS011;3356;49.360;8.266;2022-10-17T07:42:44;9.20;;;6.93;;
6640;SDS011;3356;49.360;8.266;2022-10-17T07:44:45;13.60;;;6.77;;
6640;SDS011;3356;49.360;8.266;2022-10-17T07:46:47;7.90;;;4.30;;
6640;SDS011;3356;49.360;8.266;2022-10-17T07:48:49;10.87;;;3.77;;
6640;SDS011;3356;49.360;8.266;2022-10-17T07:50:53;5.07;;;3.60;;
6640;SDS011;3356;49.360;8.266;2022-10-17T07:52:55;3.83;;;3.50;;
6640;SDS011;3356;49.360;8.266;2022-10-17T07:54:56;7.10;;;3.57;;
6640;SDS011;3356;49.360;8.266;2022-10-17T07:56:57;4.63;;;3.10;;
6640;SDS011;3356;49.360;8.266;2022-10-17T07:58:58;4.73;;;3.70;;
6640;SDS011;3356;49.360;8.266;2022-10-17T08:01:00;8.20;;;3.50;;
6640;SDS011;3356;49.360;8.266;2022-10-17T08:03:02;8.37;;;4.07;;
6640;SDS011;3356;49.360;8.266;2022-10-17T08:05:04;3.93;;;3.20;;
6640;SDS011;3356;49.360;8.266;2022-10-17T08:07:06;7.07;;;3.10;;
6640;SDS011;3356;49.360;8.266;2022-10-17T08:09:07;6.03;;;3.53;;
6640;SDS011;3356;49.360;8.266;2022-10-17T08:11:09;5.33;;;3.73;;
6640;SDS011;3356;49.360;8.266;2022-10-17T08:13:11;7.70;;;3.30;;
6640;SDS011;3356;49.360;8.266;2022-10-17T08:15:12;6.40;;;3.50;;
6640;SDS011;3356;49.360;8.266;2022-10-17T08:17:13;4.77;;;3.50;;
6640;SDS011;3356;49.360;8.266;2022-10-17T08:19:14;7.33;;;3.10;;
6640;SDS011;3356;49.360;8.266;2022-10-17T08:21:15;5.23;;;3.20;;
6640;SDS011;3356;49.360;8.266;2022-10-17T08:23:16;5.83;;;2.83;;
6640;SDS011;3356;49.360;8.266;2022-10-17T08:25:18;7.57;;;3.60;;
6640;SDS011;3356;49.360;8.266;2022-10-17T08:27:19;10.23;;;3.43;;
6640;SDS011;3356;49.360;8.266;2022-10-17T08:29:23;8.53;;;3.40;;
6640;SDS011;3356;49.360;8.266;2022-10-17T08:31:24;4.23;;;3.33;;
6640;SDS011;3356;49.360;8.266;2022-10-17T08:33:26;3.30;;;3.03;;
6640;SDS011;3356;49.360;8.266;2022-10-17T08:35:27;6.40;;;3.20;;
6640;SDS011;3356;49.360;8.266;2022-10-17T08:37:28;6.93;;;3.60;;
6640;SDS011;3356;49.360;8.266;2022-10-17T08:39:30;3.67;;;2.90;;
6640;SDS011;3356;49.360;8.266;2022-10-17T08:41:59;7.67;;;3.50;;
6640;SDS011;3356;49.360;8.266;2022-10-17T08:44:25;10.43;;;3.80;;
6640;SDS011;3356;49.360;8.266;2022-10-17T08:46:36;10.67;;;4.10;;
6640;SDS011;3356;49.360;8.266;2022-10-17T08:48:41;6.80;;;3.73;;
6640;SDS011;3356;49.360;8.266;2022-10-17T08:51:09;7.40;;;3.40;;
6640;SDS011;3356;49.360;8.266;2022-10-17T08:53:23;7.67;;;3.20;;
6640;SDS011;3356;49.360;8.266;2022-10-17T08:55:48;10.00;;;3.33;;
6640;SDS011;3356;49.360;8.266;2022-10-17T08:57:50;8.80;;;3.50;;
6640;SDS011;3356;49.360;8.266;2022-10-17T08:59:52;6.27;;;3.30;;
6640;SDS011;3356;49.360;8.266;2022-10-17T09:06:39;8.90;;;3.63;;
6640;SDS011;3356;49.360;8.266;2022-10-17T09:08:52;6.63;;;3.57;;
6640;SDS011;3356;49.360;8.266;2022-10-17T09:20:00;7.40;;;3.93;;
6640;SDS011;3356;49.360;8.266;2022-10-17T09:22:20;6.77;;;3.00;;
6640;SDS011;3356;49.360;8.266;2022-10-17T09:26:43;4.07;;;3.13;;
6640;SDS011;3356;49.360;8.266;2022-10-17T09:28:50;9.00;;;3.27;;
6640;SDS011;3356;49.360;8.266;2022-10-17T09:31:01;8.27;;;3.87;;
6640;SDS011;3356;49.360;8.266;2022-10-17T09:33:56;4.10;;;2.73;;
6640;SDS011;3356;49.360;8.266;2022-10-17T09:35:50;2.97;;;2.67;;
6640;SDS011;3356;49.360;8.266;2022-10-17T09:37:52;8.10;;;3.03;;
6640;SDS011;3356;49.360;8.266;2022-10-17T09:39:53;4.53;;;3.10;;
6640;SDS011;3356;49.360;8.266;2022-10-17T09:41:55;5.10;;;3.20;;
6640;SDS011;3356;49.360;8.266;2022-10-17T09:44:06;6.80;;;3.27;;
6640;SDS011;3356;49.360;8.266;2022-10-17T09:48:42;7.10;;;3.17;;
6640;SDS011;3356;49.360;8.266;2022-10-17T09:50:53;4.57;;;3.17;;
6640;SDS011;3356;49.360;8.266;2022-10-17T09:52:58;8.17;;;2.97;;
6640;SDS011;3356;49.360;8.266;2022-10-17T09:55:06;5.10;;;3.07;;
6640;SDS011;3356;49.360;8.266;2022-10-17T09:57:18;6.50;;;3.20;;
6640;SDS011;3356;49.360;8.266;2022-10-17T09:59:30;3.70;;;2.73;;
6640;SDS011;3356;49.360;8.266;2022-10-17T10:01:36;4.10;;;2.73;;
6640;SDS011;3356;49.360;8.266;2022-10-17T10:03:37;4.97;;;3.00;;
6640;SDS011;3356;49.360;8.266;2022-10-17T10:05:38;5.30;;;2.97;;
6640;SDS011;3356;49.360;8.266;2022-10-17T10:07:40;2.57;;;2.37;;
6640;SDS011;3356;49.360;8.266;2022-10-17T10:09:46;4.53;;;2.63;;
6640;SDS011;3356;49.360;8.266;2022-10-17T10:11:49;4.73;;;3.23;;
6640;SDS011;3356;49.360;8.266;2022-10-17T10:13:53;2.73;;;2.50;;
6640;SDS011;3356;49.360;8.266;2022-10-17T10:15:55;10.10;;;2.60;;
6640;SDS011;3356;49.360;8.266;2022-10-17T10:22:26;3.67;;;2.53;;
6640;SDS011;3356;49.360;8.266;2022-10-17T10:24:28;3.87;;;2.60;;
6640;SDS011;3356;49.360;8.266;2022-10-17T10:29:15;8.30;;;2.97;;
6640;SDS011;3356;49.360;8.266;2022-10-17T10:31:35;3.80;;;2.80;;
6640;SDS011;3356;49.360;8.266;2022-10-17T10:33:39;7.07;;;2.77;;
6640;SDS011;3356;49.360;8.266;2022-10-17T10:35:42;5.30;;;2.63;;
6640;SDS011;3356;49.360;8.266;2022-10-17T10:37:56;6.10;;;2.70;;
6640;SDS011;3356;49.360;8.266;2022-10-17T10:40:00;5.47;;;2.70;;
6640;SDS011;3356;49.360;8.266;2022-10-17T10:42:10;2.50;;;2.30;;
6640;SDS011;3356;49.360;8.266;2022-10-17T10:44:23;6.27;;;2.80;;
6640;SDS011;3356;49.360;8.266;2022-10-17T10:46:27;7.87;;;2.40;;
6640;SDS011;3356;49.360;8.266;2022-10-17T10:48:30;5.73;;;2.57;;
6640;SDS011;3356;49.360;8.266;2022-10-17T10:55:31;3.77;;;2.63;;
6640;SDS011;3356;49.360;8.266;2022-10-17T10:57:36;3.07;;;2.80;;
6640;SDS011;3356;49.360;8.266;2022-10-17T10:59:40;7.03;;;2.57;;
6640;SDS011;3356;49.360;8.266;2022-10-17T11:04:20;7.17;;;2.40;;
6640;SDS011;3356;49.360;8.266;2022-10-17T11:06:44;4.37;;;2.73;;
6640;SDS011;3356;49.360;8.266;2022-10-17T11:08:48;3.97;;;2.57;;
6640;SDS011;3356;49.360;8.266;2022-10-17T11:13:59;2.60;;;2.33;;
6640;SDS011;3356;49.360;8.266;2022-10-17T11:18:21;6.33;;;2.83;;
6640;SDS011;3356;49.360;8.266;2022-10-17T11:22:42;4.03;;;2.50;;
6640;SDS011;3356;49.360;8.266;2022-10-17T11:24:59;4.73;;;2.37;;
6640;SDS011;3356;49.360;8.266;2022-10-17T11:27:06;8.00;;;2.67;;
6640;SDS011;3356;49.360;8.266;2022-10-17T11:29:08;8.60;;;2.50;;
6640;SDS011;3356;49.360;8.266;2022-10-17T11:31:12;2.60;;;2.17;;
6640;SDS011;3356;49.360;8.266;2022-10-17T11:33:23;5.13;;;2.23;;
6640;SDS011;3356;49.360;8.266;2022-10-17T11:35:33;4.10;;;2.27;;
6640;SDS011;3356;49.360;8.266;2022-10-17T11:37:38;5.20;;;2.47;;
6640;SDS011;3356;49.360;8.266;2022-10-17T11:42:03;2.03;;;1.77;;
6640;SDS011;3356;49.360;8.266;2022-10-17T11:46:39;4.17;;;2.17;;
6640;SDS011;3356;49.360;8.266;2022-10-17T11:48:44;3.10;;;2.30;;
6640;SDS011;3356;49.360;8.266;2022-10-17T11:50:57;2.70;;;2.33;;
6640;SDS011;3356;49.360;8.266;2022-10-17T11:53:15;4.70;;;2.10;;
6640;SDS011;3356;49.360;8.266;2022-10-17T11:55:23;3.13;;;2.07;;
6640;SDS011;3356;49.360;8.266;2022-10-17T12:02:56;3.77;;;2.60;;
6640;SDS011;3356;49.360;8.266;2022-10-17T12:09:54;4.13;;;2.27;;
6640;SDS011;3356;49.360;8.266;2022-10-17T12:12:02;4.63;;;1.80;;
6640;SDS011;3356;49.360;8.266;2022-10-17T12:14:33;5.73;;;2.50;;
6640;SDS011;3356;49.360;8.266;2022-10-17T12:16:45;4.40;;;2.03;;
6640;SDS011;3356;49.360;8.266;2022-10-17T12:21:05;6.70;;;2.40;;
6640;SDS011;3356;49.360;8.266;2022-10-17T12:25:15;10.17;;;2.50;;
6640;SDS011;3356;49.360;8.266;2022-10-17T12:29:45;3.80;;;2.57;;
6640;SDS011;3356;49.360;8.266;2022-10-17T12:31:47;2.93;;;2.00;;
6640;SDS011;3356;49.360;8.266;2022-10-17T12:33:58;5.73;;;2.27;;
6640;SDS011;3356;49.360;8.266;2022-10-17T12:38:25;5.07;;;2.37;;
6640;SDS011;3356;49.360;8.266;2022-10-17T12:42:45;5.07;;;2.37;;
6640;SDS011;3356;49.360;8.266;2022-10-17T12:44:48;6.33;;;2.53;;
6640;SDS011;3356;49.360;8.266;2022-10-17T12:52:03;6.30;;;2.40;;
6640;SDS011;3356;49.360;8.266;2022-10-17T12:54:13;5.63;;;2.07;;
6640;SDS011;3356;49.360;8.266;2022-10-17T12:56:16;5.37;;;2.30;;
6640;SDS011;3356;49.360;8.266;2022-10-17T12:58:20;6.30;;;2.40;;
6640;SDS011;3356;49.360;8.266;2022-10-17T13:00:36;3.03;;;2.00;;
6640;SDS011;3356;49.360;8.266;2022-10-17T13:02:53;3.23;;;2.60;;
6640;SDS011;3356;49.360;8.266;2022-10-17T13:05:06;6.20;;;2.57;;
6640;SDS011;3356;49.360;8.266;2022-10-17T13:07:20;7.73;;;2.40;;
6640;SDS011;3356;49.360;8.266;2022-10-17T13:09:24;4.80;;;2.20;;
6640;SDS011;3356;49.360;8.266;2022-10-17T13:11:26;6.50;;;2.20;;
6640;SDS011;3356;49.360;8.266;2022-10-17T13:13:46;7.60;;;2.63;;
6640;SDS011;3356;49.360;8.266;2022-10-17T13:15:50;6.87;;;2.30;;
6640;SDS011;3356;49.360;8.266;2022-10-17T13:17:54;13.93;;;2.53;;
6640;SDS011;3356;49.360;8.266;2022-10-17T13:19:57;7.23;;;2.53;;
6640;SDS011;3356;49.360;8.266;2022-10-17T13:21:59;8.13;;;2.30;;
6640;SDS011;3356;49.360;8.266;2022-10-17T13:24:17;5.40;;;2.60;;
6640;SDS011;3356;49.360;8.266;2022-10-17T13:26:21;4.90;;;2.83;;
6640;SDS011;3356;49.360;8.266;2022-10-17T13:28:26;12.00;;;2.67;;
6640;SDS011;3356;49.360;8.266;2022-10-17T13:30:29;6.40;;;1.90;;
6640;SDS011;3356;49.360;8.266;2022-10-17T13:32:37;6.37;;;2.30;;
6640;SDS011;3356;49.360;8.266;2022-10-17T13:34:40;6.37;;;2.60;;
6640;SDS011;3356;49.360;8.266;2022-10-17T13:36:41;8.03;;;2.50;;
6640;SDS011;3356;49.360;8.266;2022-10-17T13:38:45;9.47;;;2.43;;
6640;SDS011;3356;49.360;8.266;2022-10-17T13:40:47;13.67;;;2.73;;
6640;SDS011;3356;49.360;8.266;2022-10-17T13:42:48;3.07;;;2.50;;
6640;SDS011;3356;49.360;8.266;2022-10-17T13:44:50;5.93;;;3.10;;
6640;SDS011;3356;49.360;8.266;2022-10-17T13:46:52;6.07;;;2.73;;
6640;SDS011;3356;49.360;8.266;2022-10-17T13:48:53;6.47;;;2.37;;
6640;SDS011;3356;49.360;8.266;2022-10-17T13:50:56;18.73;;;2.70;;
6640;SDS011;3356;49.360;8.266;2022-10-17T13:55:16;7.70;;;2.47;;
6640;SDS011;3356;49.360;8.266;2022-10-17T13:57:21;6.07;;;2.20;;
6640;SDS011;3356;49.360;8.266;2022-10-17T13:59:24;6.93;;;2.70;;
6640;SDS011;3356;49.360;8.266;2022-10-17T14:01:29;7.57;;;2.60;;
6640;SDS011;3356;49.360;8.266;2022-10-17T14:03:31;8.50;;;2.50;;
6640;SDS011;3356;49.360;8.266;2022-10-17T14:05:32;4.57;;;2.23;;
6640;SDS011;3356;49.360;8.266;2022-10-17T14:07:53;7.27;;;2.93;;
6640;SDS011;3356;49.360;8.266;2022-10-17T14:09:59;3.17;;;2.17;;
6640;SDS011;3356;49.360;8.266;2022-10-17T14:12:02;4.30;;;2.37;;
6640;SDS011;3356;49.360;8.266;2022-10-17T14:14:21;6.90;;;2.67;;
6640;SDS011;3356;49.360;8.266;2022-10-17T14:16:25;5.83;;;2.47;;
6640;SDS011;3356;49.360;8.266;2022-10-17T14:18:33;3.63;;;2.30;;
6640;SDS011;3356;49.360;8.266;2022-10-17T14:20:35;8.20;;;3.17;;
6640;SDS011;3356;49.360;8.266;2022-10-17T14:22:37;4.43;;;2.27;;
6640;SDS011;3356;49.360;8.266;2022-10-17T14:24:38;7.93;;;2.07;;
6640;SDS011;3356;49.360;8.266;2022-10-17T14:26:48;5.57;;;2.93;;
6640;SDS011;3356;49.360;8.266;2022-10-17T14:31:19;4.30;;;3.33;;
6640;SDS011;3356;49.360;8.266;2022-10-17T14:33:26;5.77;;;2.23;;
6640;SDS011;3356;49.360;8.266;2022-10-17T14:35:31;3.83;;;2.30;;
6640;SDS011;3356;49.360;8.266;2022-10-17T14:39:47;4.43;;;2.73;;
6640;SDS011;3356;49.360;8.266;2022-10-17T14:41:49;6.93;;;2.80;;
6640;SDS011;3356;49.360;8.266;2022-10-17T14:43:56;9.37;;;2.60;;
6640;SDS011;3356;49.360;8.266;2022-10-17T14:45:59;4.53;;;2.70;;
6640;SDS011;3356;49.360;8.266;2022-10-17T14:48:02;6.80;;;3.10;;
6640;SDS011;3356;49.360;8.266;2022-10-17T14:50:28;5.00;;;2.67;;
6640;SDS011;3356;49.360;8.266;2022-10-17T14:52:30;5.53;;;2.60;;
6640;SDS011;3356;49.360;8.266;2022-10-17T14:54:33;6.37;;;2.70;;
6640;SDS011;3356;49.360;8.266;2022-10-17T14:56:40;4.20;;;2.47;;